Time;durP1;ratioP1;P1;durP2;ratioP2;P2;SDS_P1;SDS_P2;PMS_P1;PMS_P2;Temp;Humidity;BMP_temperature;BMP_pressure;BME280_temperature;BME280_humidity;BME280_pressure;Samples;Min_cycle;Max_cycle;Signal;HPM_P1;HPM_P2
2021/12/21 00:01:21;;;;;;;19.33;8.10;;;;;;;;;;6210563;28;20481;-62
2021/12/21 00:04:21;;;;;;;21.48;9.40;;;;;;;;;;6200911;28;20156;-62
2021/12/21 00:07:22;;;;;;;19.88;9.30;;;;;;;;;;6204651;28;20560;-62
2021/12/21 00:10:27;;;;;;;21.42;9.43;;;;;;;;;;6203467;28;20052;-62
2021/12/21 00:26:29;;;;;;;19.20;9.15;;;;;;;;;;6207778;28;20512;-61
2021/12/21 00:29:29;;;;;;;16.45;8.15;;;;;;;;;;6206798;28;20049;-62
2021/12/21 00:32:30;;;;;;;22.92;8.90;;;;;;;;;;6199036;28;21049;-60
2021/12/21 00:35:31;;;;;;;17.48;9.07;;;;;;;;;;6205228;28;20050;-63
2021/12/21 00:38:31;;;;;;;17.92;8.93;;;;;;;;;;6199327;28;20206;-61
2021/12/21 00:41:33;;;;;;;15.43;8.82;;;;;;;;;;6203607;28;20046;-61
2021/12/21 00:44:33;;;;;;;21.93;9.83;;;;;;;;;;6206953;28;20567;-61
2021/12/21 00:47:39;;;;;;;18.45;9.65;;;;;;;;;;6199914;28;20046;-61
2021/12/21 00:50:40;;;;;;;21.25;10.35;;;;;;;;;;6205460;28;20558;-61
2021/12/21 00:53:40;;;;;;;18.40;9.10;;;;;;;;;;6201460;28;20058;-61
2021/12/21 00:56:41;;;;;;;16.52;8.93;;;;;;;;;;6199802;28;20469;-61
2021/12/21 00:59:42;;;;;;;17.55;9.20;;;;;;;;;;6207213;28;20046;-61
2021/12/21 01:02:43;;;;;;;17.98;8.52;;;;;;;;;;6206367;28;20104;-61
2021/12/21 01:06:06;;;;;;;17.35;8.00;;;;;;;;;;6205436;28;20049;-61
2021/12/21 01:09:32;;;;;;;;;;;;;;;;;;6205669;28;20141;-63
2021/12/21 01:16:06;;;;;;;22.67;8.07;;;;;;;;;;6208867;28;20536;-61
2021/12/21 01:19:13;;;;;;;15.38;7.30;;;;;;;;;;6204900;28;20470;-61
2021/12/21 01:26:02;;;;;;;14.18;7.57;;;;;;;;;;6199114;28;20073;-62
2021/12/21 01:29:52;;;;;;;19.23;7.47;;;;;;;;;;6202390;28;20057;-62
2021/12/21 01:35:36;;;;;;;19.73;8.70;;;;;;;;;;6202126;28;20130;-62
2021/12/21 01:38:47;;;;;;;18.50;8.25;;;;;;;;;;6202529;28;20128;-62
2021/12/21 01:42:05;;;;;;;17.05;7.35;;;;;;;;;;6204885;28;20053;-62
2021/12/21 01:51:47;;;;;;;17.80;7.32;;;;;;;;;;6201978;28;20049;-62
2021/12/21 01:54:48;;;;;;;19.33;7.88;;;;;;;;;;6201460;28;20053;-61
2021/12/21 01:57:49;;;;;;;15.90;6.80;;;;;;;;;;6206782;28;20070;-61
2021/12/21 02:00:49;;;;;;;13.90;6.28;;;;;;;;;;6202711;28;20057;-61
2021/12/21 02:03:50;;;;;;;16.48;6.35;;;;;;;;;;6206949;28;20054;-61
2021/12/21 02:06:52;;;;;;;14.77;7.13;;;;;;;;;;6198494;28;20046;-61
2021/12/21 02:09:52;;;;;;;18.45;6.30;;;;;;;;;;6200689;28;20046;-61
2021/12/21 02:12:53;;;;;;;16.42;7.22;;;;;;;;;;6202455;28;20069;-61
2021/12/21 02:15:53;;;;;;;17.63;7.32;;;;;;;;;;6202912;28;20065;-61
2021/12/21 02:19:18;;;;;;;14.02;6.47;;;;;;;;;;6205629;28;20060;-61
2021/12/21 02:22:21;;;;;;;16.83;7.47;;;;;;;;;;6210795;28;20045;-61
2021/12/21 02:28:37;;;;;;;16.60;7.65;;;;;;;;;;6199473;28;20487;-61
2021/12/21 02:31:40;;;;;;;18.55;8.60;;;;;;;;;;6205305;28;20050;-61
2021/12/21 02:34:44;;;;;;;20.50;8.85;;;;;;;;;;6202063;28;20123;-61
2021/12/21 02:37:46;;;;;;;20.08;8.18;;;;;;;;;;6209205;28;20128;-61
2021/12/21 02:40:46;;;;;;;21.52;8.63;;;;;;;;;;6208800;28;20096;-61
2021/12/21 02:43:47;;;;;;;20.67;8.13;;;;;;;;;;6206074;28;20486;-61
2021/12/21 02:46:48;;;;;;;17.95;7.50;;;;;;;;;;6210578;28;20045;-61
2021/12/21 02:49:49;;;;;;;18.83;7.38;;;;;;;;;;6208101;28;20140;-61
2021/12/21 02:52:51;;;;;;;18.70;7.93;;;;;;;;;;6203419;28;20402;-61
2021/12/21 02:55:51;;;;;;;19.67;7.68;;;;;;;;;;6205488;28;20050;-61
2021/12/21 02:58:52;;;;;;;17.13;7.63;;;;;;;;;;6204670;28;20065;-61
2021/12/21 03:01:53;;;;;;;19.70;8.63;;;;;;;;;;6212595;28;20050;-61
2021/12/21 03:04:53;;;;;;;16.58;7.55;;;;;;;;;;6212537;28;20061;-61
2021/12/21 03:08:10;;;;;;;17.42;8.02;;;;;;;;;;6221116;28;20046;-61
2021/12/21 03:11:34;;;;;;;18.63;7.85;;;;;;;;;;6206284;28;20054;-61
2021/12/21 03:14:32;;;;;;;14.50;7.03;;;;;;;;;;6204457;28;20046;-61
2021/12/21 03:17:32;;;;;;;17.70;7.78;;;;;;;;;;6202168;28;20532;-61
2021/12/21 03:20:33;;;;;;;17.23;7.28;;;;;;;;;;6208457;28;20037;-61
2021/12/21 03:23:34;;;;;;;20.50;7.95;;;;;;;;;;6202128;28;20054;-61
2021/12/21 03:26:36;;;;;;;18.52;7.57;;;;;;;;;;6207404;28;20390;-61
2021/12/21 03:29:37;;;;;;;15.48;7.15;;;;;;;;;;6209432;28;22114;-61
2021/12/21 03:32:38;;;;;;;16.75;7.70;;;;;;;;;;6208490;28;20042;-62
2021/12/21 03:35:38;;;;;;;16.25;7.75;;;;;;;;;;6204989;28;20140;-61
2021/12/21 03:38:43;;;;;;;15.00;7.82;;;;;;;;;;6206589;28;20053;-61
2021/12/21 03:41:47;;;;;;;17.13;8.38;;;;;;;;;;6207493;28;20056;-61
2021/12/21 03:44:48;;;;;;;15.60;7.85;;;;;;;;;;6199097;28;20091;-61
2021/12/21 03:47:48;;;;;;;14.82;7.97;;;;;;;;;;6205139;28;20465;-61
2021/12/21 03:50:49;;;;;;;16.77;7.40;;;;;;;;;;6209727;28;20050;-61
2021/12/21 03:53:50;;;;;;;18.30;8.45;;;;;;;;;;6201368;28;20041;-61
2021/12/21 03:56:51;;;;;;;16.50;8.48;;;;;;;;;;6205214;28;20405;-61
2021/12/21 03:59:53;;;;;;;19.30;9.37;;;;;;;;;;6206372;28;20105;-61
2021/12/21 04:02:55;;;;;;;21.23;8.23;;;;;;;;;;6202586;28;20304;-60
2021/12/21 04:05:55;;;;;;;16.92;7.63;;;;;;;;;;6204385;28;20049;-61
2021/12/21 04:08:56;;;;;;;16.45;8.13;;;;;;;;;;6207094;28;20058;-63
2021/12/21 04:11:57;;;;;;;16.88;8.85;;;;;;;;;;6205304;28;20124;-62
2021/12/21 04:14:58;;;;;;;21.08;8.25;;;;;;;;;;6205628;28;20061;-62
2021/12/21 04:17:59;;;;;;;17.98;7.65;;;;;;;;;;6205484;28;20460;-62
2021/12/21 04:20:59;;;;;;;18.40;8.35;;;;;;;;;;6202429;28;20045;-61
2021/12/21 04:24:00;;;;;;;18.48;9.05;;;;;;;;;;6206964;28;20058;-61
2021/12/21 04:27:00;;;;;;;21.15;9.18;;;;;;;;;;6206745;28;20046;-61
2021/12/21 04:30:01;;;;;;;18.10;9.10;;;;;;;;;;6208423;28;20046;-61
2021/12/21 04:33:02;;;;;;;21.88;8.35;;;;;;;;;;6199823;28;20050;-61
2021/12/21 04:36:03;;;;;;;18.92;8.65;;;;;;;;;;6205024;28;20054;-61
2021/12/21 04:39:15;;;;;;;19.13;8.63;;;;;;;;;;6208411;28;20725;-61
2021/12/21 04:42:15;;;;;;;20.42;9.23;;;;;;;;;;6205242;28;20057;-62
2021/12/21 04:45:16;;;;;;;22.35;9.48;;;;;;;;;;6198367;28;20077;-62
2021/12/21 04:48:17;;;;;;;18.08;9.70;;;;;;;;;;6205564;28;20101;-61
2021/12/21 04:51:18;;;;;;;18.40;8.95;;;;;;;;;;6199245;28;20045;-62
2021/12/21 04:54:18;;;;;;;16.73;8.82;;;;;;;;;;6202262;28;20068;-63
2021/12/21 04:57:19;;;;;;;18.55;8.38;;;;;;;;;;6200562;28;20068;-61
2021/12/21 05:00:19;;;;;;;16.63;8.18;;;;;;;;;;6203304;28;20046;-61
2021/12/21 05:03:20;;;;;;;18.27;7.90;;;;;;;;;;6210555;28;20050;-62
2021/12/21 05:06:21;;;;;;;15.88;8.23;;;;;;;;;;6208079;28;20489;-60
2021/12/21 05:09:28;;;;;;;15.80;7.80;;;;;;;;;;6202049;28;20049;-61
2021/12/21 05:12:29;;;;;;;19.48;8.15;;;;;;;;;;6207524;28;20088;-61
2021/12/21 05:15:30;;;;;;;16.92;7.95;;;;;;;;;;6213396;28;20457;-61
2021/12/21 05:18:32;;;;;;;12.57;7.03;;;;;;;;;;6208718;28;20053;-60
2021/12/21 05:21:33;;;;;;;15.93;7.43;;;;;;;;;;6215874;28;20049;-62
2021/12/21 05:24:34;;;;;;;16.73;7.70;;;;;;;;;;6214476;28;20081;-62
2021/12/21 05:27:34;;;;;;;15.20;7.53;;;;;;;;;;6214805;28;20469;-62
2021/12/21 05:30:36;;;;;;;16.13;7.55;;;;;;;;;;6209637;28;20407;-62
2021/12/21 05:33:36;;;;;;;18.70;8.07;;;;;;;;;;6199457;28;20042;-62
2021/12/21 05:36:37;;;;;;;19.15;8.15;;;;;;;;;;6204266;28;20125;-62
2021/12/21 05:39:49;;;;;;;17.73;7.88;;;;;;;;;;6199945;28;20086;-62
2021/12/21 05:42:50;;;;;;;13.38;7.32;;;;;;;;;;6201703;28;20041;-61
2021/12/21 05:45:51;;;;;;;18.27;8.02;;;;;;;;;;6200983;28;20045;-64
2021/12/21 05:48:52;;;;;;;16.75;8.60;;;;;;;;;;6215584;28;20048;-61
2021/12/21 05:51:54;;;;;;;15.05;7.45;;;;;;;;;;6211084;28;20057;-62
2021/12/21 05:54:54;;;;;;;14.48;7.88;;;;;;;;;;6212277;28;20053;-62
2021/12/21 05:57:55;;;;;;;19.63;8.25;;;;;;;;;;6198466;28;20076;-62
2021/12/21 06:00:55;;;;;;;16.52;8.00;;;;;;;;;;6203581;28;20500;-63
2021/12/21 06:03:56;;;;;;;14.52;7.75;;;;;;;;;;6198985;28;20510;-62
2021/12/21 06:06:57;;;;;;;15.38;7.97;;;;;;;;;;6200422;28;20042;-62
2021/12/21 06:09:58;;;;;;;15.73;7.68;;;;;;;;;;6200817;28;20042;-63
2021/12/21 06:22:46;;;;;;;19.65;9.60;;;;;;;;;;6201982;28;20078;-60
2021/12/21 06:26:02;;;;;;;24.63;9.38;;;;;;;;;;6200779;28;20137;-63
2021/12/21 06:29:03;;;;;;;21.08;9.93;;;;;;;;;;6199571;28;20488;-63
2021/12/21 06:32:04;;;;;;;18.25;9.68;;;;;;;;;;6204757;28;20092;-63
2021/12/21 06:35:06;;;;;;;20.13;9.73;;;;;;;;;;6206045;28;20099;-63
2021/12/21 06:38:06;;;;;;;19.73;9.25;;;;;;;;;;6204584;28;20054;-62
2021/12/21 06:41:07;;;;;;;21.00;9.65;;;;;;;;;;6201590;28;20092;-62
2021/12/21 06:44:10;;;;;;;22.80;10.55;;;;;;;;;;6213073;28;20041;-63
2021/12/21 06:53:38;;;;;;;17.40;8.02;;;;;;;;;;6201030;28;20042;-62
2021/12/21 06:56:38;;;;;;;17.40;8.70;;;;;;;;;;6207792;28;20063;-60
2021/12/21 06:59:39;;;;;;;16.15;8.35;;;;;;;;;;6200674;28;20101;-60
2021/12/21 07:02:41;;;;;;;17.88;7.47;;;;;;;;;;6209134;28;20575;-61
2021/12/21 07:05:42;;;;;;;13.65;7.75;;;;;;;;;;6219358;28;20144;-62
2021/12/21 07:08:45;;;;;;;15.93;7.65;;;;;;;;;;6210503;28;20975;-62
2021/12/21 07:11:54;;;;;;;21.45;9.35;;;;;;;;;;6205012;28;20477;-62
2021/12/21 07:18:26;;;;;;;18.45;8.07;;;;;;;;;;6215336;28;20489;-62
2021/12/21 07:21:26;;;;;;;16.70;7.77;;;;;;;;;;6218890;28;20046;-62
2021/12/21 07:24:27;;;;;;;15.68;8.52;;;;;;;;;;6211369;28;20071;-62
2021/12/21 07:27:27;;;;;;;15.30;8.05;;;;;;;;;;6214767;28;20417;-61
2021/12/21 07:30:28;;;;;;;16.73;8.18;;;;;;;;;;6211783;28;20048;-61
2021/12/21 07:33:28;;;;;;;17.92;7.53;;;;;;;;;;6214013;28;20140;-61
2021/12/21 07:36:31;;;;;;;17.05;8.65;;;;;;;;;;6213178;28;20060;-64
2021/12/21 07:39:31;;;;;;;;;;;;;;;;;;6208202;28;20046;-61
2021/12/21 07:42:33;;;;;;;22.05;10.25;;;;;;;;;;6205712;28;20020;-60
2021/12/21 07:45:33;;;;;;;24.02;11.23;;;;;;;;;;6212740;28;20111;-61
2021/12/21 07:48:34;;;;;;;23.67;11.15;;;;;;;;;;6207987;28;20049;-61
2021/12/21 07:51:35;;;;;;;19.45;10.05;;;;;;;;;;6201001;28;20042;-61
2021/12/21 07:54:36;;;;;;;23.55;12.07;;;;;;;;;;6204447;28;20483;-63
2021/12/21 07:57:37;;;;;;;24.83;11.00;;;;;;;;;;6201334;28;20081;-60
2021/12/21 08:00:38;;;;;;;19.83;11.70;;;;;;;;;;6203027;28;20073;-61
2021/12/21 08:03:39;;;;;;;25.98;12.45;;;;;;;;;;6201872;28;20061;-61
2021/12/21 08:06:41;;;;;;;28.45;13.20;;;;;;;;;;6207821;28;20141;-60
2021/12/21 08:09:46;;;;;;;26.25;13.57;;;;;;;;;;6209096;28;20481;-61
2021/12/21 08:12:47;;;;;;;21.30;11.65;;;;;;;;;;6205855;28;20050;-62
2021/12/21 08:15:48;;;;;;;25.88;12.77;;;;;;;;;;6207114;28;20133;-62
2021/12/21 08:18:48;;;;;;;22.88;12.65;;;;;;;;;;6205811;28;20064;-62
2021/12/21 08:21:49;;;;;;;26.45;12.57;;;;;;;;;;6207006;28;20136;-62
2021/12/21 08:24:50;;;;;;;23.65;12.05;;;;;;;;;;6201588;28;20053;-63
2021/12/21 08:27:54;;;;;;;21.45;11.93;;;;;;;;;;6202558;28;20113;-60
2021/12/21 08:30:55;;;;;;;25.35;12.23;;;;;;;;;;6201640;28;20153;-62
2021/12/21 08:33:55;;;;;;;29.45;13.85;;;;;;;;;;6206017;28;20045;-62
2021/12/21 08:36:56;;;;;;;26.88;12.98;;;;;;;;;;6203757;28;20150;-62
2021/12/21 08:39:58;;;;;;;29.85;14.25;;;;;;;;;;6207766;28;20049;-62
2021/12/21 08:42:59;;;;;;;32.63;14.75;;;;;;;;;;6200721;28;20164;-62
2021/12/21 08:46:00;;;;;;;23.75;12.20;;;;;;;;;;6205321;28;20056;-60
2021/12/21 08:49:00;;;;;;;20.88;10.43;;;;;;;;;;6204073;28;20053;-61
2021/12/21 08:52:01;;;;;;;25.73;11.75;;;;;;;;;;6200840;28;20050;-61
2021/12/21 08:55:04;;;;;;;24.38;11.48;;;;;;;;;;6210452;28;20046;-61
2021/12/21 08:58:05;;;;;;;26.00;12.63;;;;;;;;;;6204015;28;20053;-61
2021/12/21 09:01:06;;;;;;;25.60;12.55;;;;;;;;;;6205852;28;20056;-61
2021/12/21 09:04:06;;;;;;;21.83;10.63;;;;;;;;;;6207568;28;20241;-61
2021/12/21 09:07:07;;;;;;;21.17;10.23;;;;;;;;;;6202824;28;20050;-63
2021/12/21 09:10:09;;;;;;;18.45;9.65;;;;;;;;;;6196391;28;20801;-61
2021/12/21 09:13:11;;;;;;;21.40;10.30;;;;;;;;;;6199449;28;20080;-61
2021/12/21 09:16:12;;;;;;;18.80;10.13;;;;;;;;;;6198223;28;20146;-61
2021/12/21 09:19:13;;;;;;;20.17;9.25;;;;;;;;;;6199659;28;20376;-61
2021/12/21 09:22:14;;;;;;;17.40;7.65;;;;;;;;;;6201854;28;20046;-61
2021/12/21 09:25:15;;;;;;;25.60;11.23;;;;;;;;;;6204878;28;20089;-61
2021/12/21 09:28:16;;;;;;;19.08;8.65;;;;;;;;;;6206601;28;20468;-61
2021/12/21 09:31:18;;;;;;;17.52;7.78;;;;;;;;;;6201363;28;20046;-61
2021/12/21 09:34:18;;;;;;;12.77;6.20;;;;;;;;;;6207972;28;20088;-61
2021/12/21 09:37:20;;;;;;;14.35;6.10;;;;;;;;;;6206889;28;20042;-61
2021/12/21 09:40:30;;;;;;;14.73;5.47;;;;;;;;;;6206336;28;20052;-62
2021/12/21 09:43:31;;;;;;;10.95;4.93;;;;;;;;;;6204134;28;20053;-61
2021/12/21 09:46:32;;;;;;;9.50;4.22;;;;;;;;;;6201599;28;20049;-61
2021/12/21 09:49:33;;;;;;;10.18;4.60;;;;;;;;;;6201624;28;20081;-61
2021/12/21 09:52:34;;;;;;;10.98;5.18;;;;;;;;;;6197331;28;20056;-61
2021/12/21 09:55:35;;;;;;;12.32;5.47;;;;;;;;;;6200256;28;20053;-61
2021/12/21 09:58:36;;;;;;;11.32;4.80;;;;;;;;;;6199582;28;20069;-61
2021/12/21 10:01:36;;;;;;;13.57;5.95;;;;;;;;;;6200209;28;20535;-61
2021/12/21 10:04:47;;;;;;;10.60;5.43;;;;;;;;;;6204870;28;20054;-61
2021/12/21 10:08:02;;;;;;;11.10;5.38;;;;;;;;;;6207176;28;20049;-61
2021/12/21 10:11:04;;;;;;;12.98;6.30;;;;;;;;;;6198295;28;21353;-61
2021/12/21 10:14:06;;;;;;;14.40;7.43;;;;;;;;;;6195370;28;20145;-60
2021/12/21 10:17:08;;;;;;;15.55;7.22;;;;;;;;;;6199603;28;20046;-60
2021/12/21 10:20:09;;;;;;;14.55;6.30;;;;;;;;;;6199347;28;20081;-61
2021/12/21 10:23:15;;;;;;;15.48;7.20;;;;;;;;;;6197420;28;20160;-60
2021/12/21 10:26:23;;;;;;;13.98;6.78;;;;;;;;;;6200652;28;20074;-60
2021/12/21 10:29:23;;;;;;;11.38;6.72;;;;;;;;;;6198575;28;20196;-60
2021/12/21 10:32:26;;;;;;;18.20;8.38;;;;;;;;;;6200629;28;20050;-60
2021/12/21 10:35:34;;;;;;;18.38;8.60;;;;;;;;;;6200255;28;20053;-60
2021/12/21 10:38:49;;;;;;;15.18;7.55;;;;;;;;;;6203743;28;21438;-60
2021/12/21 10:41:52;;;;;;;16.50;7.88;;;;;;;;;;6205781;28;20116;-60
2021/12/21 10:45:00;;;;;;;15.23;7.78;;;;;;;;;;6204558;28;20085;-60
2021/12/21 10:48:05;;;;;;;15.38;7.25;;;;;;;;;;6201897;28;20050;-60
2021/12/21 10:51:14;;;;;;;13.95;5.93;;;;;;;;;;6200705;28;20200;-60
2021/12/21 10:54:26;;;;;;;12.88;6.35;;;;;;;;;;6205979;28;20046;-60
2021/12/21 10:57:31;;;;;;;14.13;7.28;;;;;;;;;;6202267;28;20048;-60
2021/12/21 11:00:34;;;;;;;15.13;7.57;;;;;;;;;;6207698;28;20054;-60
2021/12/21 11:03:50;;;;;;;17.27;7.95;;;;;;;;;;6209311;28;20057;-59
2021/12/21 11:06:50;;;;;;;16.05;8.15;;;;;;;;;;6227521;28;20181;-60
2021/12/21 11:09:55;;;;;;;18.08;7.38;;;;;;;;;;6201753;28;20042;-60
2021/12/21 11:13:07;;;;;;;14.65;6.18;;;;;;;;;;6203560;28;20500;-61
2021/12/21 11:16:08;;;;;;;7.35;3.60;;;;;;;;;;6203948;28;21234;-60
2021/12/21 11:19:14;;;;;;;6.93;3.67;;;;;;;;;;6201025;28;20072;-60
2021/12/21 11:22:15;;;;;;;8.65;3.83;;;;;;;;;;6201087;28;20133;-60
2021/12/21 11:25:15;;;;;;;13.07;5.60;;;;;;;;;;6207581;28;20115;-60
2021/12/21 11:28:20;;;;;;;18.25;7.22;;;;;;;;;;6207384;28;20050;-59
2021/12/21 11:31:22;;;;;;;12.30;4.97;;;;;;;;;;6203699;28;20136;-60
2021/12/21 11:34:31;;;;;;;14.70;5.65;;;;;;;;;;6222544;28;20428;-60
2021/12/21 11:37:32;;;;;;;11.13;4.55;;;;;;;;;;6206828;28;20046;-60
2021/12/21 11:40:38;;;;;;;9.25;3.53;;;;;;;;;;6202048;28;20124;-60
2021/12/21 11:43:41;;;;;;;13.73;4.10;;;;;;;;;;6200353;28;20429;-60
2021/12/21 11:46:55;;;;;;;8.15;4.10;;;;;;;;;;6201662;28;20127;-60
2021/12/21 11:50:01;;;;;;;8.57;3.67;;;;;;;;;;6197673;28;20790;-62
2021/12/21 11:53:05;;;;;;;10.85;4.97;;;;;;;;;;6201012;28;20074;-60
2021/12/21 11:56:07;;;;;;;8.77;4.60;;;;;;;;;;6202649;28;20056;-59
2021/12/21 11:59:08;;;;;;;5.45;2.85;;;;;;;;;;6202057;28;20081;-60
2021/12/21 12:02:09;;;;;;;6.78;2.92;;;;;;;;;;6200201;28;20056;-60
2021/12/21 12:05:21;;;;;;;7.93;3.00;;;;;;;;;;6202902;28;20089;-60
2021/12/21 12:08:24;;;;;;;6.82;3.03;;;;;;;;;;6202925;28;20483;-60
2021/12/21 12:11:37;;;;;;;5.15;2.78;;;;;;;;;;6197615;28;20054;-61
2021/12/21 12:14:39;;;;;;;7.40;3.10;;;;;;;;;;6198703;28;20100;-61
2021/12/21 12:17:48;;;;;;;7.75;2.92;;;;;;;;;;6200456;28;20046;-60
2021/12/21 12:20:50;;;;;;;7.05;3.30;;;;;;;;;;6198646;28;20476;-60
2021/12/21 12:23:55;;;;;;;10.85;4.47;;;;;;;;;;6200757;28;20061;-60
2021/12/21 12:26:59;;;;;;;12.25;4.05;;;;;;;;;;6199847;28;20200;-59
2021/12/21 12:30:13;;;;;;;9.25;4.00;;;;;;;;;;6200609;28;20080;-60
2021/12/21 12:33:13;;;;;;;8.20;3.83;;;;;;;;;;6201935;28;20100;-61
2021/12/21 12:36:14;;;;;;;6.75;3.08;;;;;;;;;;6206385;28;20056;-60
2021/12/21 12:39:26;;;;;;;8.18;2.95;;;;;;;;;;6201936;28;20060;-60
2021/12/21 12:42:29;;;;;;;7.03;2.95;;;;;;;;;;6202368;28;20393;-61
2021/12/21 12:45:34;;;;;;;;;;;;;;;;;;6205798;28;20127;-61
2021/12/21 12:48:39;;;;;;;8.10;3.13;;;;;;;;;;6207606;28;20040;-61
2021/12/21 12:51:40;;;;;;;7.32;3.08;;;;;;;;;;6204067;28;20169;-61
2021/12/21 12:54:54;;;;;;;8.93;4.20;;;;;;;;;;6204006;28;20079;-62
2021/12/21 12:57:58;;;;;;;8.98;3.28;;;;;;;;;;6204550;28;20141;-60
2021/12/21 13:01:18;;;;;;;8.30;2.95;;;;;;;;;;6204483;28;20053;-62
2021/12/21 13:04:19;;;;;;;7.45;3.28;;;;;;;;;;6205502;28;20050;-62
2021/12/21 13:07:27;;;;;;;9.93;3.63;;;;;;;;;;6199517;28;20523;-60
2021/12/21 13:10:28;;;;;;;9.38;3.35;;;;;;;;;;6200953;28;20042;-60
2021/12/21 13:13:44;;;;;;;10.00;3.65;;;;;;;;;;6198147;28;20049;-60
2021/12/21 13:16:48;;;;;;;12.02;4.40;;;;;;;;;;6203217;28;20070;-60
2021/12/21 13:19:48;;;;;;;8.25;3.47;;;;;;;;;;6203717;28;20085;-60
2021/12/21 13:22:49;;;;;;;9.38;4.95;;;;;;;;;;6205903;28;20049;-61
2021/12/21 13:26:00;;;;;;;10.35;4.25;;;;;;;;;;6205942;28;20060;-60
2021/12/21 13:29:00;;;;;;;8.32;4.18;;;;;;;;;;6202065;28;20049;-60
2021/12/21 13:32:08;;;;;;;13.20;5.53;;;;;;;;;;6204473;28;20050;-62
2021/12/21 13:35:15;;;;;;;12.15;6.20;;;;;;;;;;6201466;28;20328;-60
2021/12/21 13:38:17;;;;;;;14.35;6.38;;;;;;;;;;6198249;28;20077;-60
2021/12/21 13:41:18;;;;;;;13.27;5.78;;;;;;;;;;6198233;28;20048;-60
2021/12/21 13:44:28;;;;;;;18.23;7.40;;;;;;;;;;6202220;28;20058;-61
2021/12/21 13:47:41;;;;;;;16.75;7.18;;;;;;;;;;6206511;28;20054;-61
2021/12/21 13:50:42;;;;;;;12.63;6.13;;;;;;;;;;6202467;28;20081;-61
2021/12/21 13:53:45;;;;;;;13.18;5.90;;;;;;;;;;6199508;28;20068;-61
2021/12/21 13:56:48;;;;;;;14.13;6.13;;;;;;;;;;6204513;28;20125;-61
2021/12/21 13:59:50;;;;;;;14.05;6.38;;;;;;;;;;6202320;28;20104;-60
2021/12/21 14:03:00;;;;;;;18.42;6.50;;;;;;;;;;6203151;28;20460;-61
2021/12/21 14:06:10;;;;;;;13.52;6.07;;;;;;;;;;6204264;28;20054;-61
2021/12/21 14:09:12;;;;;;;13.80;6.78;;;;;;;;;;6202698;28;20137;-61
2021/12/21 14:12:13;;;;;;;15.93;6.28;;;;;;;;;;6203232;28;20096;-61
2021/12/21 14:15:14;;;;;;;16.95;6.85;;;;;;;;;;6201830;28;20046;-61
2021/12/21 14:18:32;;;;;;;15.00;7.18;;;;;;;;;;6205753;28;20048;-61
2021/12/21 14:21:38;;;;;;;16.33;7.03;;;;;;;;;;6205525;28;20068;-61
2021/12/21 14:24:39;;;;;;;14.68;6.80;;;;;;;;;;6203390;28;20116;-61
2021/12/21 14:27:47;;;;;;;18.00;6.68;;;;;;;;;;6206950;28;20151;-61
2021/12/21 14:30:48;;;;;;;19.77;8.50;;;;;;;;;;6201956;28;20496;-62
2021/12/21 14:33:54;;;;;;;19.10;8.48;;;;;;;;;;6201537;28;20160;-61
2021/12/21 14:36:55;;;;;;;17.33;8.18;;;;;;;;;;6198554;28;20057;-61
2021/12/21 14:39:57;;;;;;;19.23;8.48;;;;;;;;;;6197073;28;20153;-61
2021/12/21 14:42:58;;;;;;;17.60;7.53;;;;;;;;;;6201165;28;20054;-61
2021/12/21 14:46:00;;;;;;;17.55;8.02;;;;;;;;;;6197215;28;20058;-61
2021/12/21 14:49:08;;;;;;;18.40;8.40;;;;;;;;;;6196412;28;20424;-61
2021/12/21 14:52:24;;;;;;;20.88;7.93;;;;;;;;;;6205227;28;20054;-61
2021/12/21 14:55:28;;;;;;;19.88;8.35;;;;;;;;;;6196886;28;20141;-61
2021/12/21 14:58:28;;;;;;;21.05;8.70;;;;;;;;;;6202840;28;20056;-61
2021/12/21 15:01:42;;;;;;;24.80;9.02;;;;;;;;;;6200444;28;20058;-62
2021/12/21 15:04:43;;;;;;;21.90;9.63;;;;;;;;;;6206754;28;20057;-61
2021/12/21 15:07:43;;;;;;;22.63;10.00;;;;;;;;;;6203621;28;20836;-61
2021/12/21 15:10:44;;;;;;;22.02;9.55;;;;;;;;;;6197675;28;20095;-61
2021/12/21 15:13:45;;;;;;;26.90;11.02;;;;;;;;;;6203132;28;20056;-61
2021/12/21 15:16:49;;;;;;;29.75;11.32;;;;;;;;;;6199501;28;20092;-61
2021/12/21 15:19:50;;;;;;;36.13;11.88;;;;;;;;;;6197846;28;20046;-61
2021/12/21 15:22:51;;;;;;;37.78;12.88;;;;;;;;;;6204709;28;20046;-62
2021/12/21 15:25:52;;;;;;;46.75;14.48;;;;;;;;;;6200886;28;20080;-61
2021/12/21 15:28:52;;;;;;;61.42;17.27;;;;;;;;;;6198844;28;20058;-61
2021/12/21 15:31:53;;;;;;;69.90;20.17;;;;;;;;;;6203498;28;20072;-61
2021/12/21 15:34:58;;;;;;;53.67;17.85;;;;;;;;;;6202407;28;20058;-61
2021/12/21 15:38:00;;;;;;;58.38;17.67;;;;;;;;;;6200990;28;20050;-61
2021/12/21 15:41:01;;;;;;;53.28;16.30;;;;;;;;;;6200070;28;20201;-61
2021/12/21 15:44:02;;;;;;;46.75;14.90;;;;;;;;;;6203717;28;20054;-60
2021/12/21 15:47:03;;;;;;;43.83;14.10;;;;;;;;;;6201770;28;20184;-61
2021/12/21 15:50:06;;;;;;;50.78;16.88;;;;;;;;;;6200940;28;20465;-61
2021/12/21 15:53:07;;;;;;;54.78;18.42;;;;;;;;;;6207551;28;20120;-61
2021/12/21 15:56:10;;;;;;;55.15;17.10;;;;;;;;;;6208429;28;20714;-61
2021/12/21 15:59:10;;;;;;;50.78;17.50;;;;;;;;;;6208141;28;20139;-61
2021/12/21 16:02:17;;;;;;;55.03;17.70;;;;;;;;;;6211205;28;20562;-60
2021/12/21 16:05:18;;;;;;;57.95;17.95;;;;;;;;;;6211157;28;20144;-60
2021/12/21 16:08:18;;;;;;;53.40;17.95;;;;;;;;;;6209032;28;20054;-60
2021/12/21 16:11:19;;;;;;;59.65;20.90;;;;;;;;;;6208856;28;20064;-61
2021/12/21 16:14:20;;;;;;;54.28;18.20;;;;;;;;;;6210906;28;20057;-61
2021/12/21 16:17:20;;;;;;;61.00;18.55;;;;;;;;;;6208400;28;20120;-61
2021/12/21 16:20:21;;;;;;;55.80;19.08;;;;;;;;;;6209264;28;20409;-60
2021/12/21 16:23:21;;;;;;;57.25;18.75;;;;;;;;;;6209421;28;20127;-60
2021/12/21 16:26:23;;;;;;;54.05;18.13;;;;;;;;;;6207986;28;20057;-60
2021/12/21 16:29:23;;;;;;;63.23;18.47;;;;;;;;;;6205609;28;20042;-61
2021/12/21 16:32:24;;;;;;;51.78;17.80;;;;;;;;;;6206865;28;20073;-68
2021/12/21 16:35:25;;;;;;;52.88;18.10;;;;;;;;;;6209962;28;20061;-60
2021/12/21 16:38:26;;;;;;;43.50;18.17;;;;;;;;;;6208779;28;20093;-60
2021/12/21 16:41:27;;;;;;;45.55;17.67;;;;;;;;;;6208334;28;20050;-61
2021/12/21 16:44:28;;;;;;;37.75;16.52;;;;;;;;;;6200862;28;20050;-60
2021/12/21 16:47:31;;;;;;;42.40;17.67;;;;;;;;;;6198851;28;20818;-60
2021/12/21 16:50:33;;;;;;;44.03;18.45;;;;;;;;;;6201821;28;20112;-61
2021/12/21 16:53:33;;;;;;;43.63;18.27;;;;;;;;;;6202087;28;20046;-60
2021/12/21 16:56:35;;;;;;;46.85;18.98;;;;;;;;;;6199911;28;20485;-61
2021/12/21 16:59:36;;;;;;;49.63;19.80;;;;;;;;;;6196553;28;20057;-60
2021/12/21 17:02:36;;;;;;;42.95;17.67;;;;;;;;;;6200022;28;20455;-61
2021/12/21 17:05:37;;;;;;;45.42;18.35;;;;;;;;;;6198943;28;20152;-61
2021/12/21 17:08:53;;;;;;;42.53;18.85;;;;;;;;;;6197621;28;20060;-61
2021/12/21 17:11:53;;;;;;;46.08;20.80;;;;;;;;;;6198266;28;20050;-61
2021/12/21 17:14:54;;;;;;;50.47;20.38;;;;;;;;;;6197308;28;20116;-60
2021/12/21 17:17:56;;;;;;;55.17;22.80;;;;;;;;;;6197070;28;20800;-60
2021/12/21 17:20:57;;;;;;;47.55;19.90;;;;;;;;;;6202982;28;20056;-61
2021/12/21 17:23:58;;;;;;;48.60;19.88;;;;;;;;;;6205831;28;20225;-60
2021/12/21 17:26:58;;;;;;;44.15;19.08;;;;;;;;;;6204446;28;20054;-61
2021/12/21 17:29:59;;;;;;;59.28;22.73;;;;;;;;;;6197415;28;20523;-60
2021/12/21 17:33:00;;;;;;;64.47;25.33;;;;;;;;;;6202420;28;20050;-60
2021/12/21 17:36:08;;;;;;;74.10;28.35;;;;;;;;;;6198349;28;20053;-60
2021/12/21 17:39:08;;;;;;;85.63;34.22;;;;;;;;;;6200942;28;20058;-60
2021/12/21 17:42:12;;;;;;;78.40;29.45;;;;;;;;;;6205338;28;20056;-60
2021/12/21 17:45:12;;;;;;;74.53;31.30;;;;;;;;;;6203588;28;20078;-60
2021/12/21 17:48:13;;;;;;;78.72;29.70;;;;;;;;;;6202465;28;20509;-60
2021/12/21 17:51:14;;;;;;;139.52;40.65;;;;;;;;;;6198777;28;20056;-61
2021/12/21 17:54:15;;;;;;;114.90;38.35;;;;;;;;;;6201017;28;20057;-61
2021/12/21 17:57:18;;;;;;;119.20;34.97;;;;;;;;;;6198002;28;20041;-61
2021/12/21 18:00:19;;;;;;;143.77;43.45;;;;;;;;;;6196840;28;20509;-62
2021/12/21 18:03:20;;;;;;;141.65;41.70;;;;;;;;;;6199442;28;20045;-61
2021/12/21 18:06:22;;;;;;;157.60;46.33;;;;;;;;;;6197967;28;20055;-62
2021/12/21 18:09:22;;;;;;;126.33;39.63;;;;;;;;;;6194669;28;20473;-59
2021/12/21 18:12:23;;;;;;;137.02;40.10;;;;;;;;;;6198838;28;20133;-61
2021/12/21 18:15:24;;;;;;;114.57;37.60;;;;;;;;;;6198363;28;20417;-61
2021/12/21 18:18:25;;;;;;;136.43;41.92;;;;;;;;;;6193696;28;20054;-62
2021/12/21 18:21:25;;;;;;;139.73;41.40;;;;;;;;;;6195510;28;20097;-61
2021/12/21 18:24:27;;;;;;;126.93;39.92;;;;;;;;;;6199524;28;20058;-60
2021/12/21 18:27:30;;;;;;;126.50;39.53;;;;;;;;;;6196822;28;20046;-61
2021/12/21 18:30:31;;;;;;;112.25;36.22;;;;;;;;;;6196151;28;20779;-61
2021/12/21 18:33:33;;;;;;;125.65;40.00;;;;;;;;;;6200236;28;20061;-61
2021/12/21 18:36:34;;;;;;;122.93;37.80;;;;;;;;;;6196591;28;20054;-61
2021/12/21 18:39:35;;;;;;;136.18;42.78;;;;;;;;;;6196320;28;20061;-61
2021/12/21 18:42:35;;;;;;;134.82;40.13;;;;;;;;;;6200785;28;20165;-61
2021/12/21 18:45:36;;;;;;;139.48;44.42;;;;;;;;;;6198883;28;20054;-60
2021/12/21 18:48:37;;;;;;;144.77;44.25;;;;;;;;;;6196985;28;20046;-60
2021/12/21 18:51:37;;;;;;;149.10;45.53;;;;;;;;;;6200909;28;20137;-61